Time;durP1;ratioP1;P1;durP2;ratioP2;P2;SDS_P1;SDS_P2;PMS_P1;PMS_P2;Temp;Humidity;BMP_temperature;BMP_pressure;BME280_temperature;BME280_humidity;BME280_pressure;Samples;Min_cycle;Max_cycle;Signal;HPM_P1;HPM_P2
2022/10/05 00:00:25;;;;;;;;;;;;;;;;;;2132794;27;19923;-47
2022/10/05 00:01:26;;;;;;;;;;;;;;;;;;2132899;27;20344;-46
2022/10/05 00:02:27;;;;;;;;;;;;;;;;;;2132754;27;19924;-47
2022/10/05 00:03:28;;;;;;;;;;;;;;;;;;2132643;27;19923;-48
2022/10/05 00:04:29;;;;;;;;;;;;;;;;;;2132812;27;19973;-46
2022/10/05 00:05:29;;;;;;;;;;;;;;;;;;2132800;27;20376;-46
2022/10/05 00:06:30;;;;;;;;;;;;;;;;;;2132757;27;20299;-46
2022/10/05 00:07:31;;;;;;;;;;;;;;;;;;2132709;27;19949;-46
2022/10/05 00:08:32;;;;;;;;;;;;;;;;;;2132605;27;20372;-47
2022/10/05 00:09:33;;;;;;;;;;;;;;;;;;2132605;27;19923;-48
2022/10/05 00:10:33;;;;;;;;;;;;;;;;;;2132579;27;19982;-48
2022/10/05 00:11:34;;;;;;;;;;;;;;;;;;2132372;27;19976;-47
2022/10/05 00:12:35;;;;;;;;;;;;;;;;;;2132548;27;20372;-47
2022/10/05 00:13:36;;;;;;;;;;;;;;;;;;2132690;27;19923;-46
2022/10/05 00:14:37;;;;;;;;;;;;;;;;;;2132755;27;20332;-46
2022/10/05 00:15:38;;;;;;;;;;;;;;;;;;2132712;27;19923;-47
2022/10/05 00:16:38;;;;;;;;;;;;;;;;;;2132617;27;20300;-46
2022/10/05 00:17:39;;;;;;;;;;;;;;;;;;2132721;27;19938;-46
2022/10/05 00:18:40;;;;;;;;;;;;;;;;;;2132664;27;19927;-47
2022/10/05 00:19:41;;;;;;;;;;;;;;;;;;2132524;27;19977;-47
2022/10/05 00:20:42;;;;;;;;;;;;;;;;;;2132542;27;19958;-47
2022/10/05 00:21:42;;;;;;;;;;;;;;;;;;2132663;27;19923;-47
2022/10/05 00:22:43;;;;;;;;;;;;;;;;;;2132489;27;20345;-47
2022/10/05 00:23:44;;;;;;;;;;;;;;;;;;2132382;27;19923;-47
2022/10/05 00:24:45;;;;;;;;;;;;;;;;;;2132628;27;19976;-47
2022/10/05 00:25:46;;;;;;;;;;;;;;;;;;2132488;27;20281;-47
2022/10/05 00:26:48;;;;;;;;;;;;;;;;;;2132596;27;19969;-46
2022/10/05 00:27:51;;;;;;;;;;;;;;;;;;2132650;27;19923;-48
2022/10/05 00:28:52;;;;;;;;;;;;;;;;;;2132702;27;20366;-43
2022/10/05 00:29:53;;;;;;;;;;;;;;;;;;2132458;27;19930;-43
2022/10/05 00:30:54;;;;;;;;;;;;;;;;;;2132428;27;19927;-43
2022/10/05 00:31:55;;;;;;;;;;;;;;;;;;2132596;27;20321;-43
2022/10/05 00:32:56;;;;;;;;;;;;;;;;;;2132619;27;20380;-47
2022/10/05 00:33:59;;;;;;;;;;;;;;;;;;2132825;27;20027;-46
2022/10/05 00:35:00;;;;;;;;;;;;;;;;;;2132738;27;20442;-43
2022/10/05 00:36:01;;;;;;;;;;;;;;;;;;2132584;27;19927;-44
2022/10/05 00:37:02;;;;;;;;;;;;;;;;;;2132245;27;19923;-43
2022/10/05 00:38:03;;;;;;;;;;;;;;;;;;2131721;27;19929;-43
2022/10/05 00:39:04;;;;;;;;;;;;;;;;;;2132339;27;19923;-43
2022/10/05 00:40:04;;;;;;;;;;;;;;;;;;2132379;27;19924;-43
2022/10/05 00:41:05;;;;;;;;;;;;;;;;;;2132421;27;20018;-43
2022/10/05 00:42:06;;;;;;;;;;;;;;;;;;2132274;27;19930;-43
2022/10/05 00:43:07;;;;;;;;;;;;;;;;;;2132674;27;19923;-43
2022/10/05 00:44:08;;;;;;;;;;;;;;;;;;2132449;27;19923;-43
2022/10/05 00:45:08;;;;;;;;;;;;;;;;;;2132353;27;19927;-43
2022/10/05 00:46:09;;;;;;;;;;;;;;;;;;2132427;27;20372;-43
2022/10/05 00:47:10;;;;;;;;;;;;;;;;;;2132111;27;20401;-43
2022/10/05 00:48:11;;;;;;;;;;;;;;;;;;2132693;27;19927;-43
2022/10/05 00:49:12;;;;;;;;;;;;;;;;;;2132377;27;19966;-43
2022/10/05 00:50:12;;;;;;;;;;;;;;;;;;2132482;27;19954;-43
2022/10/05 00:51:13;;;;;;;;;;;;;;;;;;2132334;27;19974;-43
2022/10/05 00:52:19;;;;;;;;;;;;;;;;;;2132214;27;19923;-43
2022/10/05 00:53:20;;;;;;;;;;;;;;;;;;2132360;27;20279;-43
2022/10/05 00:54:20;;;;;;;;;;;;;;;;;;2132303;27;19927;-43
2022/10/05 00:55:21;;;;;;;;;;;;;;;;;;2132318;27;19930;-43
2022/10/05 00:56:22;;;;;;;;;;;;;;;;;;2132333;27;19930;-43
2022/10/05 00:57:23;;;;;;;;;;;;;;;;;;2132238;27;19970;-44
2022/10/05 00:58:23;;;;;;;;;;;;;;;;;;2132320;27;19927;-43
2022/10/05 00:59:24;;;;;;;;;;;;;;;;;;2132349;27;19965;-44
2022/10/05 01:00:25;;;;;;;;;;;;;;;;;;2132419;27;20265;-43
2022/10/05 01:01:26;;;;;;;;;;;;;;;;;;2132351;27;19930;-43
2022/10/05 01:02:27;;;;;;;;;;;;;;;;;;2132315;27;19958;-44
2022/10/05 01:03:29;;;;;;;;;;;;;;;;;;2132405;27;19923;-44
2022/10/05 01:04:30;;;;;;;;;;;;;;;;;;2132201;27;19966;-43
2022/10/05 01:05:31;;;;;;;;;;;;;;;;;;2132409;27;19927;-43
2022/10/05 01:06:32;;;;;;;;;;;;;;;;;;2132230;27;20387;-43
2022/10/05 01:07:32;;;;;;;;;;;;;;;;;;2132397;27;19923;-43
2022/10/05 01:08:33;;;;;;;;;;;;;;;;;;2132243;27;19929;-44
2022/10/05 01:09:34;;;;;;;;;;;;;;;;;;2132339;27;19972;-44
2022/10/05 01:10:35;;;;;;;;;;;;;;;;;;2132392;27;20383;-43
2022/10/05 01:11:36;;;;;;;;;;;;;;;;;;2131937;27;19923;-43
2022/10/05 01:12:37;;;;;;;;;;;;;;;;;;2132203;27;19927;-43
2022/10/05 01:13:37;;;;;;;;;;;;;;;;;;2132314;27;19927;-44
2022/10/05 01:14:38;;;;;;;;;;;;;;;;;;2132274;27;19958;-43
2022/10/05 01:15:39;;;;;;;;;;;;;;;;;;2132149;27;19984;-43
2022/10/05 01:16:40;;;;;;;;;;;;;;;;;;2132302;27;19924;-43
2022/10/05 01:17:41;;;;;;;;;;;;;;;;;;2132129;27;19934;-43
2022/10/05 01:18:42;;;;;;;;;;;;;;;;;;2132276;27;20375;-44
2022/10/05 01:19:42;;;;;;;;;;;;;;;;;;2132003;27;19923;-43
2022/10/05 01:20:43;;;;;;;;;;;;;;;;;;2132270;27;20026;-43
2022/10/05 01:21:44;;;;;;;;;;;;;;;;;;2132414;27;20384;-47
2022/10/05 01:22:45;;;;;;;;;;;;;;;;;;2132108;27;19937;-46
2022/10/05 01:23:46;;;;;;;;;;;;;;;;;;2132130;27;20076;-46
2022/10/05 01:24:47;;;;;;;;;;;;;;;;;;2132077;27;19923;-46
2022/10/05 01:25:47;;;;;;;;;;;;;;;;;;2132143;27;20402;-46
2022/10/05 01:26:48;;;;;;;;;;;;;;;;;;2132006;27;19923;-46
2022/10/05 01:27:49;;;;;;;;;;;;;;;;;;2132410;27;19945;-44
2022/10/05 01:28:50;;;;;;;;;;;;;;;;;;2132189;27;19923;-44
2022/10/05 01:29:51;;;;;;;;;;;;;;;;;;2132071;27;20380;-43
2022/10/05 01:30:52;;;;;;;;;;;;;;;;;;2132226;27;19951;-43
2022/10/05 01:31:52;;;;;;;;;;;;;;;;;;2131966;27;20448;-43
2022/10/05 01:32:53;;;;;;;;;;;;;;;;;;2132134;27;19963;-43
2022/10/05 01:33:54;;;;;;;;;;;;;;;;;;2132037;27;19930;-43
2022/10/05 01:34:55;;;;;;;;;;;;;;;;;;2132222;27;20325;-44
2022/10/05 01:35:56;;;;;;;;;;;;;;;;;;2132103;27;19946;-44
2022/10/05 01:36:56;;;;;;;;;;;;;;;;;;2132050;27;19977;-43
2022/10/05 01:37:57;;;;;;;;;;;;;;;;;;2132036;27;19979;-43
2022/10/05 01:38:58;;;;;;;;;;;;;;;;;;2132254;27;19975;-46
2022/10/05 01:39:59;;;;;;;;;;;;;;;;;;2131932;27;19930;-46
2022/10/05 01:41:00;;;;;;;;;;;;;;;;;;2132176;27;19966;-46
2022/10/05 01:42:00;;;;;;;;;;;;;;;;;;2132067;27;19923;-46
2022/10/05 01:43:01;;;;;;;;;;;;;;;;;;2131717;27;19926;-46
2022/10/05 01:44:02;;;;;;;;;;;;;;;;;;2132134;27;19930;-46
2022/10/05 01:45:03;;;;;;;;;;;;;;;;;;2132003;27;19929;-45
2022/10/05 01:46:04;;;;;;;;;;;;;;;;;;2132112;27;20000;-45
2022/10/05 01:47:05;;;;;;;;;;;;;;;;;;2131875;27;20300;-46
2022/10/05 01:48:05;;;;;;;;;;;;;;;;;;2132140;27;20002;-45
2022/10/05 01:49:06;;;;;;;;;;;;;;;;;;2131911;27;19923;-45
2022/10/05 01:50:08;;;;;;;;;;;;;;;;;;2131835;27;20001;-47
2022/10/05 01:51:09;;;;;;;;;;;;;;;;;;2131965;27;19923;-46
2022/10/05 01:52:09;;;;;;;;;;;;;;;;;;2132163;27;19923;-43
2022/10/05 01:53:10;;;;;;;;;;;;;;;;;;2131930;27;19927;-43
2022/10/05 01:54:11;;;;;;;;;;;;;;;;;;2131942;27;19975;-43
2022/10/05 01:55:12;;;;;;;;;;;;;;;;;;2132210;27;20324;-44
2022/10/05 01:56:13;;;;;;;;;;;;;;;;;;2131939;27;19927;-45
2022/10/05 01:57:14;;;;;;;;;;;;;;;;;;2131782;27;20030;-45
2022/10/05 01:58:14;;;;;;;;;;;;;;;;;;2131845;27;19930;-45
2022/10/05 01:59:16;;;;;;;;;;;;;;;;;;2132102;27;20388;-44
2022/10/05 02:00:17;;;;;;;;;;;;;;;;;;2131991;27;19930;-44
2022/10/05 02:01:18;;;;;;;;;;;;;;;;;;2131931;27;20373;-43
2022/10/05 02:02:19;;;;;;;;;;;;;;;;;;2131915;27;19984;-45
2022/10/05 02:03:20;;;;;;;;;;;;;;;;;;2132104;27;20000;-44
2022/10/05 02:04:21;;;;;;;;;;;;;;;;;;2132144;27;20007;-45
2022/10/05 02:05:42;;;;;;;;;;;;;;;;;;2131976;27;19923;-46
2022/10/05 02:06:43;;;;;;;;;;;;;;;;;;2131959;27;19930;-46
2022/10/05 02:07:44;;;;;;;;;;;;;;;;;;2132231;27;20383;-45
2022/10/05 02:08:45;;;;;;;;;;;;;;;;;;2131869;27;19923;-46
2022/10/05 02:09:46;;;;;;;;;;;;;;;;;;2131827;27;19923;-46
2022/10/05 02:10:46;;;;;;;;;;;;;;;;;;2131938;27;19994;-46
2022/10/05 02:11:47;;;;;;;;;;;;;;;;;;2131575;27;19923;-45
2022/10/05 02:12:48;;;;;;;;;;;;;;;;;;2132109;27;19923;-47
2022/10/05 02:13:49;;;;;;;;;;;;;;;;;;2131868;27;19962;-46
2022/10/05 02:14:50;;;;;;;;;;;;;;;;;;2131995;27;19930;-46
2022/10/05 02:15:51;;;;;;;;;;;;;;;;;;2131722;27;19953;-46
2022/10/05 02:16:52;;;;;;;;;;;;;;;;;;2131776;27;19930;-47
2022/10/05 02:17:53;;;;;;;;;;;;;;;;;;2131765;27;19992;-46
2022/10/05 02:18:53;;;;;;;;;;;;;;;;;;2131715;27;19930;-47
2022/10/05 02:19:54;;;;;;;;;;;;;;;;;;2131938;27;19923;-45
2022/10/05 02:20:55;;;;;;;;;;;;;;;;;;2131820;27;19927;-47
2022/10/05 02:21:56;;;;;;;;;;;;;;;;;;2131816;27;19977;-46
2022/10/05 02:22:56;;;;;;;;;;;;;;;;;;2131833;27;19923;-45
2022/10/05 02:23:57;;;;;;;;;;;;;;;;;;2131943;27;19927;-45
2022/10/05 02:24:58;;;;;;;;;;;;;;;;;;2131814;27;20378;-45
2022/10/05 02:25:59;;;;;;;;;;;;;;;;;;2131700;27;19923;-46
2022/10/05 02:27:00;;;;;;;;;;;;;;;;;;2131876;27;20420;-45
2022/10/05 02:28:01;;;;;;;;;;;;;;;;;;2131806;27;19934;-45
2022/10/05 02:29:01;;;;;;;;;;;;;;;;;;2131851;27;19931;-44
2022/10/05 02:30:02;;;;;;;;;;;;;;;;;;2131805;27;19923;-47
2022/10/05 02:31:03;;;;;;;;;;;;;;;;;;2131864;27;19927;-46
2022/10/05 02:32:04;;;;;;;;;;;;;;;;;;2131935;27;19923;-45
2022/10/05 02:33:05;;;;;;;;;;;;;;;;;;2131826;27;19923;-45
2022/10/05 02:34:06;;;;;;;;;;;;;;;;;;2131763;27;20022;-45
2022/10/05 02:35:06;;;;;;;;;;;;;;;;;;2131796;27;19946;-45
2022/10/05 02:36:07;;;;;;;;;;;;;;;;;;2131943;27;19930;-45
2022/10/05 02:37:08;;;;;;;;;;;;;;;;;;2131524;27;20356;-45
2022/10/05 02:38:09;;;;;;;;;;;;;;;;;;2131863;27;19923;-45
2022/10/05 02:39:10;;;;;;;;;;;;;;;;;;2131563;27;20497;-45
2022/10/05 02:40:11;;;;;;;;;;;;;;;;;;2131827;27;19927;-46
2022/10/05 02:41:11;;;;;;;;;;;;;;;;;;2131700;27;20415;-46
2022/10/05 02:42:12;;;;;;;;;;;;;;;;;;2131723;27;20336;-46
2022/10/05 02:43:13;;;;;;;;;;;;;;;;;;2131704;27;19975;-45
2022/10/05 02:44:14;;;;;;;;;;;;;;;;;;2131770;27;19929;-45
2022/10/05 02:45:15;;;;;;;;;;;;;;;;;;2131618;27;20454;-45
2022/10/05 02:46:16;;;;;;;;;;;;;;;;;;2131770;27;19927;-45
2022/10/05 02:47:16;;;;;;;;;;;;;;;;;;2131572;27;19923;-45
2022/10/05 02:48:17;;;;;;;;;;;;;;;;;;2131607;27;19923;-45
2022/10/05 02:49:18;;;;;;;;;;;;;;;;;;2131750;27;19990;-45
2022/10/05 02:50:19;;;;;;;;;;;;;;;;;;2131650;27;19945;-45
2022/10/05 02:51:20;;;;;;;;;;;;;;;;;;2131735;27;19946;-45
2022/10/05 02:52:21;;;;;;;;;;;;;;;;;;2131677;27;19972;-45
2022/10/05 02:53:21;;;;;;;;;;;;;;;;;;2131645;27;20417;-45
2022/10/05 02:54:22;;;;;;;;;;;;;;;;;;2131723;27;20006;-46
2022/10/05 02:55:23;;;;;;;;;;;;;;;;;;2131726;27;20386;-46
2022/10/05 02:56:24;;;;;;;;;;;;;;;;;;2131494;27;19971;-46
2022/10/05 02:57:25;;;;;;;;;;;;;;;;;;2131680;27;20379;-47
2022/10/05 02:58:26;;;;;;;;;;;;;;;;;;2131592;27;20379;-45
2022/10/05 02:59:26;;;;;;;;;;;;;;;;;;2131550;27;19930;-45
2022/10/05 03:00:27;;;;;;;;;;;;;;;;;;2131563;27;19927;-46
2022/10/05 03:01:28;;;;;;;;;;;;;;;;;;2131858;27;19930;-45
2022/10/05 03:02:29;;;;;;;;;;;;;;;;;;2133126;27;20014;-46
2022/10/05 03:03:30;;;;;;;;;;;;;;;;;;2133135;27;19974;-46
2022/10/05 03:04:31;;;;;;;;;;;;;;;;;;2133167;27;20324;-45
2022/10/05 03:05:31;;;;;;;;;;;;;;;;;;2133145;27;19971;-45
2022/10/05 03:06:32;;;;;;;;;;;;;;;;;;2133104;27;20361;-46
2022/10/05 03:07:33;;;;;;;;;;;;;;;;;;2133187;27;20310;-45
2022/10/05 03:08:34;;;;;;;;;;;;;;;;;;2132984;27;19966;-45
2022/10/05 03:09:35;;;;;;;;;;;;;;;;;;2133255;27;19927;-44
2022/10/05 03:10:36;;;;;;;;;;;;;;;;;;2133002;27;19923;-43
2022/10/05 03:11:36;;;;;;;;;;;;;;;;;;2132806;27;19930;-43
2022/10/05 03:12:37;;;;;;;;;;;;;;;;;;2132922;27;19970;-43
2022/10/05 03:13:38;;;;;;;;;;;;;;;;;;2133089;27;19946;-44
2022/10/05 03:14:39;;;;;;;;;;;;;;;;;;2133082;27;19924;-43
2022/10/05 03:15:40;;;;;;;;;;;;;;;;;;2133147;27;20417;-43
2022/10/05 03:16:40;;;;;;;;;;;;;;;;;;2132980;27;19970;-45
2022/10/05 03:17:41;;;;;;;;;;;;;;;;;;2133056;27;19927;-44
2022/10/05 03:18:42;;;;;;;;;;;;;;;;;;2133391;27;19967;-43
2022/10/05 03:19:43;;;;;;;;;;;;;;;;;;2132868;27;19930;-43
2022/10/05 03:20:44;;;;;;;;;;;;;;;;;;2132944;27;20490;-43
2022/10/05 03:21:44;;;;;;;;;;;;;;;;;;2132816;27;20005;-43
2022/10/05 03:22:45;;;;;;;;;;;;;;;;;;2133059;27;20372;-43
2022/10/05 03:23:46;;;;;;;;;;;;;;;;;;2133005;27;20014;-43
2022/10/05 03:24:47;;;;;;;;;;;;;;;;;;2132927;27;19923;-44
2022/10/05 03:25:48;;;;;;;;;;;;;;;;;;2132948;27;19975;-43
2022/10/05 03:26:49;;;;;;;;;;;;;;;;;;2132987;27;19923;-43
2022/10/05 03:27:49;;;;;;;;;;;;;;;;;;2133010;27;19930;-43
2022/10/05 03:28:50;;;;;;;;;;;;;;;;;;2132828;27;19930;-43
2022/10/05 03:29:51;;;;;;;;;;;;;;;;;;2132912;27;19927;-43
2022/10/05 03:30:52;;;;;;;;;;;;;;;;;;2132869;27;19930;-43
2022/10/05 03:31:53;;;;;;;;;;;;;;;;;;2132817;27;19923;-43
2022/10/05 03:32:54;;;;;;;;;;;;;;;;;;2132941;27;19980;-43
2022/10/05 03:33:55;;;;;;;;;;;;;;;;;;2132895;27;19923;-43
2022/10/05 03:34:56;;;;;;;;;;;;;;;;;;2132907;27;19923;-43
2022/10/05 03:35:56;;;;;;;;;;;;;;;;;;2132905;27;19991;-46
2022/10/05 03:36:57;;;;;;;;;;;;;;;;;;2132733;27;19923;-45
2022/10/05 03:37:58;;;;;;;;;;;;;;;;;;2132912;27;19977;-45
2022/10/05 03:38:59;;;;;;;;;;;;;;;;;;2133095;27;20033;-43
2022/10/05 03:39:59;;;;;;;;;;;;;;;;;;2132758;27;19929;-43
2022/10/05 03:41:00;;;;;;;;;;;;;;;;;;2132858;27;20424;-43
2022/10/05 03:42:01;;;;;;;;;;;;;;;;;;2132806;27;19927;-44
2022/10/05 03:43:02;;;;;;;;;;;;;;;;;;2132811;27;19931;-43
2022/10/05 03:44:03;;;;;;;;;;;;;;;;;;2132826;27;20021;-43
2022/10/05 03:45:04;;;;;;;;;;;;;;;;;;2133026;27;20014;-43
2022/10/05 03:46:05;;;;;;;;;;;;;;;;;;2133095;27;19930;-44
2022/10/05 03:47:06;;;;;;;;;;;;;;;;;;2132677;27;19966;-44
2022/10/05 03:48:06;;;;;;;;;;;;;;;;;;2133004;27;19984;-43
2022/10/05 03:49:07;;;;;;;;;;;;;;;;;;2132735;27;20025;-44
2022/10/05 03:50:08;;;;;;;;;;;;;;;;;;2132973;27;19946;-43
2022/10/05 03:51:09;;;;;;;;;;;;;;;;;;2132841;27;19946;-43
2022/10/05 03:52:10;;;;;;;;;;;;;;;;;;2132789;27;19923;-43
2022/10/05 03:53:11;;;;;;;;;;;;;;;;;;2132827;27;19923;-43
2022/10/05 03:54:11;;;;;;;;;;;;;;;;;;2132860;27;20026;-43
2022/10/05 03:55:12;;;;;;;;;;;;;;;;;;2132679;27;19970;-44
2022/10/05 03:56:14;;;;;;;;;;;;;;;;;;2132909;27;19923;-43
2022/10/05 03:57:15;;;;;;;;;;;;;;;;;;2132620;27;19923;-47
2022/10/05 03:58:15;;;;;;;;;;;;;;;;;;2132736;27;20027;-45
2022/10/05 03:59:16;;;;;;;;;;;;;;;;;;2132842;27;20002;-46
2022/10/05 04:00:17;;;;;;;;;;;;;;;;;;2132709;27;20406;-45
2022/10/05 04:01:18;;;;;;;;;;;;;;;;;;2132777;27;19923;-46
2022/10/05 04:02:19;;;;;;;;;;;;;;;;;;2132868;27;19930;-45
2022/10/05 04:03:20;;;;;;;;;;;;;;;;;;2132857;27;20386;-45
2022/10/05 04:04:20;;;;;;;;;;;;;;;;;;2132639;27;20374;-45
2022/10/05 04:05:21;;;;;;;;;;;;;;;;;;2132669;27;20018;-46
2022/10/05 04:06:22;;;;;;;;;;;;;;;;;;2132656;27;19930;-46
2022/10/05 04:07:23;;;;;;;;;;;;;;;;;;2132597;27;19970;-46
2022/10/05 04:08:24;;;;;;;;;;;;;;;;;;2130238;27;19923;-46
2022/10/05 04:09:25;;;;;;;;;;;;;;;;;;2123997;28;19924;-45
2022/10/05 04:10:25;;;;;;;;;;;;;;;;;;2124416;28;19980;-46
2022/10/05 04:11:26;;;;;;;;;;;;;;;;;;2127203;27;19923;-46
2022/10/05 04:12:27;;;;;;;;;;;;;;;;;;2132594;27;20000;-46
2022/10/05 04:13:28;;;;;;;;;;;;;;;;;;2132616;27;19972;-46
2022/10/05 04:14:28;;;;;;;;;;;;;;;;;;2132590;27;19930;-45
2022/10/05 04:15:29;;;;;;;;;;;;;;;;;;2132553;27;19923;-46
2022/10/05 04:16:30;;;;;;;;;;;;;;;;;;2132735;27;19924;-46
2022/10/05 04:17:31;;;;;;;;;;;;;;;;;;2132477;27;19926;-43
2022/10/05 04:18:32;;;;;;;;;;;;;;;;;;2132596;27;19923;-43
2022/10/05 04:19:33;;;;;;;;;;;;;;;;;;2132568;27;20168;-43
2022/10/05 04:20:34;;;;;;;;;;;;;;;;;;2132590;27;20367;-44
2022/10/05 04:21:35;;;;;;;;;;;;;;;;;;2132485;27;20318;-44
2022/10/05 04:22:36;;;;;;;;;;;;;;;;;;2132484;27;19923;-43
2022/10/05 04:23:37;;;;;;;;;;;;;;;;;;2132711;27;20440;-43
2022/10/05 04:24:37;;;;;;;;;;;;;;;;;;2132846;27;20406;-46
2022/10/05 04:25:38;;;;;;;;;;;;;;;;;;2132716;27;20412;-45
2022/10/05 04:26:39;;;;;;;;;;;;;;;;;;2132694;27;20065;-45
2022/10/05 04:27:40;;;;;;;;;;;;;;;;;;2132884;27;19923;-45
2022/10/05 04:28:40;;;;;;;;;;;;;;;;;;2132472;27;19930;-46
2022/10/05 04:29:41;;;;;;;;;;;;;;;;;;2132479;27;19927;-46
2022/10/05 04:30:42;;;;;;;;;;;;;;;;;;2132841;27;20316;-43
2022/10/05 04:31:43;;;;;;;;;;;;;;;;;;2132202;27;20291;-43
2022/10/05 04:32:44;;;;;;;;;;;;;;;;;;2132636;27;20330;-43
2022/10/05 04:33:45;;;;;;;;;;;;;;;;;;2132448;27;19930;-43
2022/10/05 04:34:45;;;;;;;;;;;;;;;;;;2132813;27;19969;-43
2022/10/05 04:35:46;;;;;;;;;;;;;;;;;;2132552;27;20021;-44
2022/10/05 04:36:47;;;;;;;;;;;;;;;;;;2132378;27;20329;-43
2022/10/05 04:37:48;;;;;;;;;;;;;;;;;;2132514;27;19923;-43
2022/10/05 04:38:49;;;;;;;;;;;;;;;;;;2132603;27;19923;-43
2022/10/05 04:39:50;;;;;;;;;;;;;;;;;;2132466;27;19927;-44
2022/10/05 04:40:51;;;;;;;;;;;;;;;;;;2132391;27;19923;-43
2022/10/05 04:41:52;;;;;;;;;;;;;;;;;;2132482;27;19931;-43
2022/10/05 04:42:52;;;;;;;;;;;;;;;;;;2132417;27;20029;-43
2022/10/05 04:43:53;;;;;;;;;;;;;;;;;;2132532;27;20116;-43
2022/10/05 04:44:54;;;;;;;;;;;;;;;;;;2132420;27;19923;-43
2022/10/05 04:45:59;;;;;;;;;;;;;;;;;;2132511;27;19934;-43
2022/10/05 04:47:00;;;;;;;;;;;;;;;;;;2132263;27;19930;-43
2022/10/05 04:48:01;;;;;;;;;;;;;;;;;;2132623;27;20403;-46
2022/10/05 04:49:02;;;;;;;;;;;;;;;;;;2132508;27;19923;-46
2022/10/05 04:50:03;;;;;;;;;;;;;;;;;;2132455;27;19923;-46
2022/10/05 04:51:04;;;;;;;;;;;;;;;;;;2132934;27;19964;-45
2022/10/05 04:52:05;;;;;;;;;;;;;;;;;;2132353;27;19987;-46
2022/10/05 04:53:06;;;;;;;;;;;;;;;;;;2132498;27;20032;-46
2022/10/05 04:54:07;;;;;;;;;;;;;;;;;;2132396;27;20026;-46
2022/10/05 04:55:07;;;;;;;;;;;;;;;;;;2132550;27;19931;-45
2022/10/05 04:56:08;;;;;;;;;;;;;;;;;;2132481;27;19923;-46
2022/10/05 04:57:09;;;;;;;;;;;;;;;;;;2132375;27;20428;-45
2022/10/05 04:58:10;;;;;;;;;;;;;;;;;;2132311;27;19930;-45
2022/10/05 04:59:11;;;;;;;;;;;;;;;;;;2132592;27;19923;-46
2022/10/05 05:00:12;;;;;;;;;;;;;;;;;;2132457;27;19927;-46
2022/10/05 05:01:13;;;;;;;;;;;;;;;;;;2132548;27;20367;-44
2022/10/05 05:02:14;;;;;;;;;;;;;;;;;;2132343;27;19975;-43
2022/10/05 05:03:14;;;;;;;;;;;;;;;;;;2132306;27;19923;-43
2022/10/05 05:04:15;;;;;;;;;;;;;;;;;;2132468;27;19927;-43
2022/10/05 05:05:16;;;;;;;;;;;;;;;;;;2124450;27;20293;-45
2022/10/05 05:06:17;;;;;;;;;;;;;;;;;;2123947;28;19928;-43
2022/10/05 05:07:18;;;;;;;;;;;;;;;;;;2123572;27;19923;-43
2022/10/05 05:08:19;;;;;;;;;;;;;;;;;;2123845;28;19925;-43
2022/10/05 05:09:20;;;;;;;;;;;;;;;;;;2123759;28;19931;-44
2022/10/05 05:10:21;;;;;;;;;;;;;;;;;;2123632;28;20030;-43
2022/10/05 05:11:22;;;;;;;;;;;;;;;;;;2126282;27;19927;-44
2022/10/05 05:12:25;;;;;;;;;;;;;;;;;;2132442;27;19931;-43
2022/10/05 05:13:26;;;;;;;;;;;;;;;;;;2132321;27;19923;-43
2022/10/05 05:14:27;;;;;;;;;;;;;;;;;;2132259;27;20384;-43
2022/10/05 05:15:28;;;;;;;;;;;;;;;;;;2132300;27;19923;-43
2022/10/05 05:16:29;;;;;;;;;;;;;;;;;;2132295;27;19972;-46
2022/10/05 05:17:29;;;;;;;;;;;;;;;;;;2132156;27;20406;-46
2022/10/05 05:18:30;;;;;;;;;;;;;;;;;;2132282;27;19963;-44
2022/10/05 05:19:31;;;;;;;;;;;;;;;;;;2132156;27;20391;-46
2022/10/05 05:20:32;;;;;;;;;;;;;;;;;;2132283;27;20001;-46
2022/10/05 05:21:33;;;;;;;;;;;;;;;;;;2132234;27;19954;-45
2022/10/05 05:22:34;;;;;;;;;;;;;;;;;;2132275;27;19923;-46
2022/10/05 05:23:34;;;;;;;;;;;;;;;;;;2132249;27;20344;-46
2022/10/05 05:24:35;;;;;;;;;;;;;;;;;;2131792;27;19977;-43
2022/10/05 05:25:36;;;;;;;;;;;;;;;;;;2132359;27;19968;-43
2022/10/05 05:26:37;;;;;;;;;;;;;;;;;;2132660;27;19931;-45
2022/10/05 05:27:39;;;;;;;;;;;;;;;;;;2132197;27;19923;-47
2022/10/05 05:28:40;;;;;;;;;;;;;;;;;;2132055;27;19922;-46
2022/10/05 05:29:41;;;;;;;;;;;;;;;;;;2132038;27;19930;-46
2022/10/05 05:30:41;;;;;;;;;;;;;;;;;;2132148;27;19927;-47
2022/10/05 05:31:42;;;;;;;;;;;;;;;;;;2131997;27;19948;-47
2022/10/05 05:32:43;;;;;;;;;;;;;;;;;;2132074;27;19931;-47
2022/10/05 05:33:44;;;;;;;;;;;;;;;;;;2132299;27;20119;-46
2022/10/05 05:34:45;;;;;;;;;;;;;;;;;;2132195;27;19930;-43
2022/10/05 05:35:45;;;;;;;;;;;;;;;;;;2132220;27;20368;-43
2022/10/05 05:36:47;;;;;;;;;;;;;;;;;;2132221;27;19961;-46
2022/10/05 05:37:48;;;;;;;;;;;;;;;;;;2131937;27;19923;-46
2022/10/05 05:38:49;;;;;;;;;;;;;;;;;;2132192;27;19934;-47
2022/10/05 05:39:49;;;;;;;;;;;;;;;;;;2132028;27;19923;-45
2022/10/05 05:40:50;;;;;;;;;;;;;;;;;;2132000;27;19923;-47
2022/10/05 05:41:51;;;;;;;;;;;;;;;;;;2132367;27;20007;-45
2022/10/05 05:42:52;;;;;;;;;;;;;;;;;;2132044;27;20403;-47
2022/10/05 05:43:53;;;;;;;;;;;;;;;;;;2131998;27;19963;-46
2022/10/05 05:44:54;;;;;;;;;;;;;;;;;;2132262;27;20265;-43
2022/10/05 05:45:54;;;;;;;;;;;;;;;;;;2131994;27;19930;-43
2022/10/05 05:46:55;;;;;;;;;;;;;;;;;;2132045;27;19931;-43
2022/10/05 05:48:05;;;;;;;;;;;;;;;;;;2132195;27;19945;-43
2022/10/05 05:49:06;;;;;;;;;;;;;;;;;;2132143;27;19923;-45
2022/10/05 05:50:06;;;;;;;;;;;;;;;;;;2131887;27;19977;-46
2022/10/05 05:51:08;;;;;;;;;;;;;;;;;;2132401;27;20394;-43
2022/10/05 05:52:09;;;;;;;;;;;;;;;;;;2131919;27;19929;-44
2022/10/05 05:53:10;;;;;;;;;;;;;;;;;;2131896;27;19945;-43
2022/10/05 05:54:10;;;;;;;;;;;;;;;;;;2132156;27;19927;-43
2022/10/05 05:55:11;;;;;;;;;;;;;;;;;;2131908;27;19966;-43
2022/10/05 05:56:12;;;;;;;;;;;;;;;;;;2132059;27;19934;-43
2022/10/05 05:57:13;;;;;;;;;;;;;;;;;;2132040;27;19970;-43
2022/10/05 05:58:14;;;;;;;;;;;;;;;;;;2131978;27;19962;-43
2022/10/05 05:59:15;;;;;;;;;;;;;;;;;;2131968;27;19923;-43
2022/10/05 06:00:16;;;;;;;;;;;;;;;;;;2131917;27;19927;-43
2022/10/05 06:01:17;;;;;;;;;;;;;;;;;;2125982;27;19945;-44
2022/10/05 06:02:32;;;;;;;;;;;;;;;;;;2123353;28;19923;-43
2022/10/05 06:03:33;;;;;;;;;;;;;;;;;;2123292;28;19938;-43
2022/10/05 06:04:34;;;;;;;;;;;;;;;;;;2123549;28;19924;-44
2022/10/05 06:05:35;;;;;;;;;;;;;;;;;;2123488;28;20374;-43
2022/10/05 06:06:36;;;;;;;;;;;;;;;;;;2123412;27;19931;-44
2022/10/05 06:07:37;;;;;;;;;;;;;;;;;;2123250;28;19927;-44
2022/10/05 06:08:38;;;;;;;;;;;;;;;;;;2123316;28;19927;-43
2022/10/05 06:09:39;;;;;;;;;;;;;;;;;;2123574;28;19931;-47
2022/10/05 06:10:40;;;;;;;;;;;;;;;;;;2123461;28;20003;-43
2022/10/05 06:11:41;;;;;;;;;;;;;;;;;;2128740;27;19934;-47
2022/10/05 06:12:42;;;;;;;;;;;;;;;;;;2131845;27;19960;-45
2022/10/05 06:13:43;;;;;;;;;;;;;;;;;;2132042;27;20089;-45
2022/10/05 06:14:43;;;;;;;;;;;;;;;;;;2131857;27;20268;-46
2022/10/05 06:15:44;;;;;;;;;;;;;;;;;;2131885;27;20006;-46
2022/10/05 06:16:45;;;;;;;;;;;;;;;;;;2131781;27;19983;-46
2022/10/05 06:17:46;;;;;;;;;;;;;;;;;;2131890;27;19923;-46
2022/10/05 06:18:47;;;;;;;;;;;;;;;;;;2132015;27;19930;-46
2022/10/05 06:19:48;;;;;;;;;;;;;;;;;;2132040;27;19930;-45
2022/10/05 06:20:49;;;;;;;;;;;;;;;;;;2131935;27;19930;-46
2022/10/05 06:21:50;;;;;;;;;;;;;;;;;;2131704;27;19969;-45
2022/10/05 06:22:51;;;;;;;;;;;;;;;;;;2131909;27;19923;-46
2022/10/05 06:23:51;;;;;;;;;;;;;;;;;;2131800;27;20288;-46
2022/10/05 06:24:52;;;;;;;;;;;;;;;;;;2131822;27;19927;-45
2022/10/05 06:25:53;;;;;;;;;;;;;;;;;;2131812;27;19923;-46
2022/10/05 06:26:54;;;;;;;;;;;;;;;;;;2131700;27;19976;-45
2022/10/05 06:27:55;;;;;;;;;;;;;;;;;;2131930;27;19930;-44
2022/10/05 06:28:56;;;;;;;;;;;;;;;;;;2131826;27;20357;-44
2022/10/05 06:29:56;;;;;;;;;;;;;;;;;;2131853;27;20379;-43
2022/10/05 06:30:57;;;;;;;;;;;;;;;;;;2131738;27;19945;-44
2022/10/05 06:31:58;;;;;;;;;;;;;;;;;;2131777;27;19923;-44
2022/10/05 06:32:59;;;;;;;;;;;;;;;;;;2131871;27;19930;-45
2022/10/05 06:34:00;;;;;;;;;;;;;;;;;;2131787;27;19922;-44
2022/10/05 06:35:01;;;;;;;;;;;;;;;;;;2131752;27;19934;-44
2022/10/05 06:36:02;;;;;;;;;;;;;;;;;;2131850;27;20427;-44
2022/10/05 06:37:03;;;;;;;;;;;;;;;;;;2132970;27;19923;-44
2022/10/05 06:38:03;;;;;;;;;;;;;;;;;;2133166;27;19946;-43
2022/10/05 06:39:05;;;;;;;;;;;;;;;;;;2133278;27;20368;-45
2022/10/05 06:40:05;;;;;;;;;;;;;;;;;;2133840;27;20420;-44
2022/10/05 06:41:06;;;;;;;;;;;;;;;;;;2133330;27;19975;-44
2022/10/05 06:42:07;;;;;;;;;;;;;;;;;;2133393;27;19923;-47
2022/10/05 06:43:08;;;;;;;;;;;;;;;;;;2133629;27;19923;-45
2022/10/05 06:44:09;;;;;;;;;;;;;;;;;;2133281;27;20360;-44
2022/10/05 06:45:10;;;;;;;;;;;;;;;;;;2133204;27;19966;-44
2022/10/05 06:46:10;;;;;;;;;;;;;;;;;;2133176;27;20289;-44
2022/10/05 06:47:12;;;;;;;;;;;;;;;;;;2133299;27;19923;-46
2022/10/05 06:48:12;;;;;;;;;;;;;;;;;;2133198;27;19927;-46
2022/10/05 06:49:13;;;;;;;;;;;;;;;;;;2133350;27;19923;-46
2022/10/05 06:50:14;;;;;;;;;;;;;;;;;;2133182;27;19930;-46
2022/10/05 06:51:15;;;;;;;;;;;;;;;;;;2133330;27;20026;-47
2022/10/05 06:52:16;;;;;;;;;;;;;;;;;;2133704;27;20321;-45
2022/10/05 06:53:17;;;;;;;;;;;;;;;;;;2133433;27;19955;-45
2022/10/05 06:54:18;;;;;;;;;;;;;;;;;;2133369;27;20288;-46
2022/10/05 06:55:19;;;;;;;;;;;;;;;;;;2133350;27;19982;-44
2022/10/05 06:56:20;;;;;;;;;;;;;;;;;;2133304;27;20398;-44